createdAt,value
2018-06-21T00:00:08.513Z,10.40
2018-06-21T00:02:38.147Z,10.57
2018-06-21T00:05:07.712Z,10.03
2018-06-21T00:07:38.162Z,11.10
2018-06-21T00:10:08.043Z,10.70
2018-06-21T00:12:37.679Z,9.80
2018-06-21T00:15:07.420Z,9.87
2018-06-21T00:17:37.071Z,10.70
2018-06-21T00:20:06.673Z,9.67
2018-06-21T00:22:36.444Z,9.67
2018-06-21T00:25:06.218Z,9.30
2018-06-21T00:27:35.836Z,9.63
2018-06-21T00:30:05.543Z,9.60
2018-06-21T00:32:35.195Z,9.60
2018-06-21T00:35:07.425Z,11.07
2018-06-21T00:37:37.041Z,9.80
2018-06-21T00:40:06.719Z,11.73
2018-06-21T00:42:36.370Z,9.50
2018-06-21T00:45:06.430Z,9.13
2018-06-21T00:47:35.976Z,9.47
2018-06-21T00:50:05.689Z,9.40
2018-06-21T00:52:35.321Z,8.80
2018-06-21T00:55:05.080Z,8.87
2018-06-21T00:57:34.888Z,9.07
2018-06-21T01:00:06.194Z,9.73
2018-06-21T01:02:36.922Z,9.80
2018-06-21T01:05:06.548Z,9.30
2018-06-21T01:07:36.206Z,9.70
2018-06-21T01:10:05.730Z,8.63
2018-06-21T01:12:35.426Z,8.70
2018-06-21T01:15:04.689Z,10.20
2018-06-21T01:17:34.119Z,9.37
2018-06-21T01:20:04.041Z,8.97
2018-06-21T01:22:33.637Z,8.67
2018-06-21T01:25:03.248Z,9.60
2018-06-21T01:27:32.854Z,8.90
2018-06-21T01:30:03.710Z,7.83
2018-06-21T01:32:33.314Z,7.57
2018-06-21T01:35:03.039Z,8.03
2018-06-21T01:37:32.710Z,7.90
2018-06-21T01:40:02.355Z,7.80
2018-06-21T01:42:31.817Z,7.00
2018-06-21T01:45:03.635Z,6.23
2018-06-21T01:47:33.355Z,6.90
2018-06-21T01:50:03.486Z,6.00
2018-06-21T01:52:33.174Z,7.23
2018-06-21T01:55:05.142Z,6.50
2018-06-21T01:57:34.867Z,8.07
2018-06-21T02:00:06.231Z,6.70
2018-06-21T02:02:35.879Z,6.57
2018-06-21T02:05:06.847Z,6.80
2018-06-21T02:07:36.943Z,6.30
2018-06-21T02:10:06.691Z,6.80
2018-06-21T02:12:36.358Z,6.50
2018-06-21T02:15:06.108Z,6.27
2018-06-21T02:17:35.679Z,6.50
2018-06-21T02:20:05.640Z,6.73
2018-06-21T02:22:35.354Z,6.67
2018-06-21T02:25:05.176Z,6.27
2018-06-21T02:27:35.749Z,7.10
2018-06-21T02:30:05.662Z,6.80
2018-06-21T02:32:35.347Z,7.00
2018-06-21T02:35:06.557Z,6.77
2018-06-21T02:37:36.314Z,6.67
2018-06-21T02:40:06.961Z,7.07
2018-06-21T02:42:36.717Z,7.03
2018-06-21T02:45:07.517Z,6.80
2018-06-21T02:47:37.161Z,7.27
2018-06-21T02:50:07.014Z,7.70
2018-06-21T02:52:36.893Z,7.07
2018-06-21T02:55:06.849Z,7.57
2018-06-21T02:57:36.491Z,7.60
2018-06-21T03:00:06.119Z,7.47
2018-06-21T03:02:35.783Z,8.40
2018-06-21T03:05:06.409Z,8.10
2018-06-21T03:07:36.061Z,7.80
2018-06-21T03:10:05.708Z,7.53
2018-06-21T03:12:35.388Z,7.80
2018-06-21T03:15:05.769Z,7.43
2018-06-21T03:17:35.405Z,8.53
2018-06-21T03:20:05.202Z,7.80
2018-06-21T03:22:35.024Z,7.77
2018-06-21T03:25:04.850Z,7.93
2018-06-21T03:27:34.513Z,8.47
2018-06-21T03:30:04.963Z,7.30
2018-06-21T03:32:34.486Z,8.17
2018-06-21T03:35:04.087Z,7.00
2018-06-21T03:37:33.822Z,8.00
2018-06-21T03:40:04.289Z,8.77
2018-06-21T03:42:33.994Z,7.93
2018-06-21T03:45:03.825Z,7.73
2018-06-21T03:47:33.523Z,7.57
2018-06-21T03:50:03.199Z,7.33
2018-06-21T03:52:33.844Z,7.80
2018-06-21T03:55:04.536Z,6.93
2018-06-21T04:15:31.881Z,8.03
2018-06-21T04:18:03.304Z,7.60
2018-06-21T04:20:32.996Z,7.80
2018-06-21T04:23:05.014Z,7.63
2018-06-21T04:25:34.625Z,7.63
2018-06-21T04:28:05.284Z,7.63
2018-06-21T04:30:35.031Z,8.03
2018-06-21T04:33:04.769Z,7.47
2018-06-21T04:35:34.398Z,7.00
2018-06-21T04:38:05.257Z,7.70
2018-06-21T04:40:34.865Z,8.10
2018-06-21T04:43:04.632Z,8.97
2018-06-21T04:45:34.368Z,8.30
2018-06-21T04:48:05.201Z,7.63
2018-06-21T04:50:36.117Z,7.87
2018-06-21T04:53:05.968Z,6.10
2018-06-21T04:55:35.753Z,7.00
2018-06-21T04:58:05.515Z,7.13
2018-06-21T05:00:35.153Z,6.93
2018-06-21T05:03:04.873Z,6.50
2018-06-21T05:05:35.285Z,6.80
2018-06-21T05:08:05.120Z,7.30
2018-06-21T05:10:34.792Z,7.33
2018-06-21T05:13:04.642Z,7.17
2018-06-21T05:15:34.418Z,6.10
2018-06-21T05:18:04.174Z,9.37
2018-06-21T05:20:33.859Z,8.83
2018-06-21T05:23:04.820Z,7.00
2018-06-21T05:25:34.627Z,6.87
2018-06-21T05:28:05.978Z,6.07
2018-06-21T05:30:35.706Z,6.37
2018-06-21T05:33:05.478Z,8.07
2018-06-21T05:35:35.823Z,6.40
2018-06-21T05:38:06.055Z,6.97
2018-06-21T05:40:37.009Z,6.37
2018-06-21T05:43:09.393Z,5.83
2018-06-21T05:45:43.332Z,5.77
2018-06-21T05:48:13.153Z,6.23
2018-06-21T05:50:42.980Z,5.50
2018-06-21T05:53:12.714Z,6.27
2018-06-21T05:55:42.499Z,5.03
2018-06-21T05:58:12.191Z,5.47
2018-06-21T06:00:42.018Z,5.63
2018-06-21T06:03:12.670Z,5.40
2018-06-21T06:05:48.655Z,5.90
2018-06-21T06:08:18.637Z,5.30
2018-06-21T06:10:48.227Z,5.60
2018-06-21T06:13:18.722Z,5.43
2018-06-21T06:15:48.461Z,6.20
2018-06-21T06:18:18.332Z,5.63
2018-06-21T06:20:48.058Z,5.47
2018-06-21T06:23:18.620Z,7.00
2018-06-21T06:25:49.162Z,5.80
2018-06-21T06:28:18.922Z,7.13
2018-06-21T06:30:48.741Z,5.50
2018-06-21T06:33:18.560Z,5.00
2018-06-21T06:35:48.415Z,6.00
2018-06-21T06:38:18.166Z,5.13
2018-06-21T06:40:47.889Z,4.60
2018-06-21T06:43:17.844Z,5.07
2018-06-21T06:45:48.318Z,5.10
2018-06-21T06:48:18.174Z,4.93
2018-06-21T06:50:48.141Z,6.10
2018-06-21T06:53:17.917Z,5.50
2018-06-21T06:55:48.799Z,4.57
2018-06-21T06:58:18.683Z,4.70
2018-06-21T07:00:49.342Z,5.10
2018-06-21T07:03:19.376Z,5.27
2018-06-21T07:05:49.171Z,5.20
2018-06-21T07:08:20.591Z,5.37
2018-06-21T07:10:50.388Z,4.33
2018-06-21T07:13:20.314Z,4.97
2018-06-21T07:15:49.937Z,5.67
2018-06-21T07:18:19.697Z,5.40
2018-06-21T07:20:50.485Z,4.97
2018-06-21T07:23:21.676Z,4.67
2018-06-21T07:25:52.065Z,5.10
2018-06-21T07:28:21.969Z,5.70
2018-06-21T07:30:51.915Z,5.57
2018-06-21T07:33:21.676Z,5.00
2018-06-21T07:35:51.533Z,4.70
2018-06-21T07:38:22.067Z,4.60
2018-06-21T07:40:52.375Z,4.80
2018-06-21T07:43:22.401Z,4.70
2018-06-21T07:45:53.039Z,5.47
2018-06-21T07:48:23.028Z,4.63
2018-06-21T07:50:53.025Z,4.33
2018-06-21T07:53:22.748Z,4.57
2018-06-21T07:55:52.539Z,4.70
2018-06-21T07:58:22.507Z,4.87
2018-06-21T08:00:52.111Z,3.97
2018-06-21T08:03:22.159Z,4.40
2018-06-21T08:05:53.019Z,4.50
2018-06-21T08:08:22.925Z,3.70
2018-06-21T08:10:52.738Z,3.77
2018-06-21T08:13:22.467Z,4.43
2018-06-21T08:15:52.278Z,4.27
2018-06-21T08:18:22.277Z,3.93
2018-06-21T08:20:52.096Z,4.53
2018-06-21T08:23:21.412Z,3.93
2018-06-21T08:25:52.218Z,4.10
2018-06-21T08:28:21.846Z,4.07
2018-06-21T08:30:56.094Z,3.67
2018-06-21T08:33:26.231Z,3.70
2018-06-21T08:35:55.970Z,4.00
2018-06-21T08:38:25.630Z,3.90
2018-06-21T08:40:56.313Z,3.97
2018-06-21T08:43:33.171Z,3.40
2018-06-21T08:46:05.361Z,4.67
2018-06-21T08:48:35.190Z,3.80
2018-06-21T08:51:05.669Z,4.37
2018-06-21T08:53:35.354Z,4.60
2018-06-21T08:56:05.229Z,4.10
2018-06-21T08:58:34.850Z,4.40
2018-06-21T09:01:04.497Z,4.20
2018-06-21T09:03:34.286Z,4.37
2018-06-21T09:06:04.219Z,4.40
2018-06-21T09:08:33.999Z,4.20
2018-06-21T09:11:03.745Z,4.20
2018-06-21T09:13:36.057Z,3.73
2018-06-21T09:16:07.675Z,3.43
2018-06-21T09:18:37.254Z,3.50
2018-06-21T09:21:07.193Z,3.83
2018-06-21T09:23:36.812Z,4.03
2018-06-21T09:26:06.479Z,3.30
2018-06-21T09:28:36.387Z,3.97
2018-06-21T09:31:06.537Z,4.07
2018-06-21T09:33:36.147Z,4.43
2018-06-21T09:36:06.506Z,4.40
2018-06-21T09:38:41.890Z,4.23
2018-06-21T09:41:17.037Z,4.67
2018-06-21T09:44:03.825Z,6.10
2018-06-21T09:46:33.874Z,3.80
2018-06-21T09:48:57.710Z,3.93
2018-06-21T09:51:27.498Z,4.13
2018-06-21T09:53:57.246Z,4.10
2018-06-21T09:56:27.024Z,4.10
2018-06-21T09:58:56.920Z,4.20
2018-06-21T10:01:26.677Z,3.80
2018-06-21T10:03:56.991Z,3.70
2018-06-21T10:06:28.170Z,3.40
2018-06-21T10:08:58.893Z,3.50
2018-06-21T10:11:28.608Z,4.03
2018-06-21T10:13:58.311Z,4.07
2018-06-21T10:16:28.346Z,3.30
2018-06-21T10:18:58.813Z,3.50
2018-06-21T10:21:28.601Z,3.30
2018-06-21T10:23:58.430Z,3.50
2018-06-21T10:26:28.117Z,2.93
2018-06-21T10:28:57.995Z,3.17
2018-06-21T10:31:27.783Z,2.93
2018-06-21T10:33:57.316Z,3.17
2018-06-21T10:36:26.958Z,3.70
2018-06-21T10:38:56.735Z,3.43
2018-06-21T10:41:26.496Z,3.33
2018-06-21T10:43:56.185Z,2.57
2018-06-21T10:46:26.180Z,4.00
2018-06-21T10:48:56.205Z,3.20
2018-06-21T10:51:26.975Z,3.37
2018-06-21T10:53:57.660Z,2.83
2018-06-21T10:56:27.789Z,2.77
2018-06-21T10:58:57.541Z,2.80
2018-06-21T11:01:27.289Z,3.57
2018-06-21T11:03:57.127Z,3.40
2018-06-21T11:06:26.868Z,3.60
2018-06-21T11:08:56.650Z,2.90
2018-06-21T11:11:26.350Z,3.23
2018-06-21T11:13:56.159Z,3.50
2018-06-21T11:16:25.922Z,3.20
2018-06-21T11:18:55.626Z,3.40
2018-06-21T11:21:25.937Z,2.93
2018-06-21T11:23:55.711Z,3.70
2018-06-21T11:26:25.854Z,3.97
2018-06-21T11:29:05.462Z,4.40
2018-06-21T11:31:34.658Z,4.10
2018-06-21T11:34:06.056Z,4.50
2018-06-21T11:36:35.776Z,4.83
2018-06-21T11:39:09.269Z,4.10
2018-06-21T11:41:39.322Z,4.23
2018-06-21T11:44:09.055Z,4.17
2018-06-21T11:46:38.859Z,4.30
2018-06-21T11:49:08.810Z,5.27
2018-06-21T11:51:39.119Z,4.60
2018-06-21T11:54:09.372Z,3.57
2018-06-21T11:56:39.047Z,4.20
2018-06-21T11:59:08.985Z,4.13
2018-06-21T12:01:38.712Z,4.03
2018-06-21T12:04:10.627Z,3.60
2018-06-21T12:06:40.575Z,4.13
2018-06-21T12:09:11.688Z,3.90
2018-06-21T12:11:41.333Z,4.23
2018-06-21T12:14:11.235Z,4.10
2018-06-21T12:16:41.490Z,4.43
2018-06-21T12:19:11.110Z,4.00
2018-06-21T12:21:40.924Z,4.40
2018-06-21T12:24:11.465Z,4.00
2018-06-21T12:26:42.022Z,5.00
2018-06-21T12:29:16.084Z,4.23
2018-06-21T12:31:45.757Z,4.53
2018-06-21T12:34:15.528Z,4.77
2018-06-21T12:36:45.242Z,4.17
2018-06-21T12:39:15.494Z,4.97
2018-06-21T12:41:45.385Z,5.20
2018-06-21T12:44:15.237Z,5.63
2018-06-21T12:46:44.912Z,4.70
2018-06-21T12:49:14.630Z,4.57
2018-06-21T12:51:44.244Z,6.30
2018-06-21T12:54:13.858Z,4.67
2018-06-21T12:56:43.666Z,4.73
2018-06-21T12:59:13.381Z,4.90
2018-06-21T13:01:43.282Z,4.37
2018-06-21T13:04:13.089Z,4.77
2018-06-21T13:06:43.838Z,4.50
2018-06-21T13:09:24.600Z,4.90
2018-06-21T13:13:31.222Z,3.90
2018-06-21T13:18:36.343Z,4.93
2018-06-21T13:21:06.561Z,5.67
2018-06-21T13:23:36.247Z,4.60
2018-06-21T13:26:06.199Z,4.60
2018-06-21T13:28:38.201Z,4.63
2018-06-21T13:31:08.102Z,4.30
2018-06-21T13:33:37.981Z,4.80
2018-06-21T13:36:08.007Z,4.83
2018-06-21T13:38:45.869Z,5.40
2018-06-21T13:41:15.832Z,4.13
2018-06-21T13:43:45.634Z,3.83
2018-06-21T13:46:15.721Z,3.90
2018-06-21T13:48:45.575Z,4.63
2018-06-21T13:51:15.374Z,5.50
2018-06-21T13:53:45.116Z,5.20
2018-06-21T13:56:14.995Z,4.93
2018-06-21T13:58:45.139Z,5.77
2018-06-21T14:01:16.776Z,5.40
2018-06-21T14:03:47.175Z,5.67
2018-06-21T14:06:17.100Z,5.80
2018-06-21T14:08:46.808Z,5.17
2018-06-21T14:11:16.592Z,5.63
2018-06-21T14:13:47.340Z,5.30
2018-06-21T14:16:17.066Z,5.70
2018-06-21T14:18:47.553Z,5.57
2018-06-21T14:21:17.382Z,4.83
2018-06-21T14:23:53.873Z,5.13
2018-06-21T14:26:23.806Z,4.53
2018-06-21T14:28:53.350Z,4.77
2018-06-21T14:31:24.010Z,4.43
2018-06-21T14:33:54.103Z,4.40
2018-06-21T14:36:24.076Z,4.53
2018-06-21T14:38:54.069Z,4.37
2018-06-21T14:41:24.016Z,4.13
2018-06-21T14:43:53.763Z,4.00
2018-06-21T14:46:23.761Z,4.00
2018-06-21T14:48:53.503Z,4.30
2018-06-21T14:51:23.253Z,4.23
2018-06-21T14:53:52.962Z,4.53
2018-06-21T14:56:22.679Z,5.00
2018-06-21T14:58:52.439Z,6.67
2018-06-21T15:01:22.100Z,4.63
2018-06-21T15:03:51.948Z,4.80
2018-06-21T15:06:21.831Z,4.57
2018-06-21T15:08:51.790Z,5.63
2018-06-21T15:11:21.422Z,5.13
2018-06-21T15:13:52.059Z,5.40
2018-06-21T15:16:23.029Z,4.40
2018-06-21T15:18:52.842Z,4.23
2018-06-21T15:21:22.520Z,4.80
2018-06-21T15:23:52.153Z,4.70
2018-06-21T15:28:57.194Z,4.03
2018-06-21T15:31:26.937Z,4.40
2018-06-21T15:33:57.562Z,5.37
2018-06-21T15:36:27.269Z,5.37
2018-06-21T15:39:03.461Z,4.50
2018-06-21T15:41:33.313Z,4.23
2018-06-21T15:44:02.939Z,4.80
2018-06-21T15:46:32.701Z,5.10
2018-06-21T15:49:02.664Z,5.10
2018-06-21T15:51:47.788Z,4.50
2018-06-21T15:54:17.660Z,4.80
2018-06-21T15:56:47.366Z,4.97
2018-06-21T15:59:18.091Z,4.30
2018-06-21T16:01:47.806Z,4.10
2018-06-21T16:04:17.555Z,4.30
2018-06-21T16:06:47.214Z,4.13
2018-06-21T16:09:17.012Z,4.40
2018-06-21T16:11:46.676Z,4.27
2018-06-21T16:14:16.503Z,4.20
2018-06-21T16:16:46.171Z,4.30
2018-06-21T16:19:15.921Z,6.40
2018-06-21T16:21:45.738Z,4.73
2018-06-21T16:24:15.382Z,4.20
2018-06-21T16:26:45.020Z,4.20
2018-06-21T16:29:14.733Z,4.70
2018-06-21T16:31:44.334Z,4.40
2018-06-21T16:34:14.022Z,4.10
2018-06-21T16:36:43.787Z,4.43
2018-06-21T16:39:13.578Z,4.90
2018-06-21T16:41:44.911Z,4.10
2018-06-21T16:44:14.621Z,4.80
2018-06-21T16:46:44.385Z,4.90
2018-06-21T16:49:13.960Z,4.67
2018-06-21T16:51:44.646Z,4.13
2018-06-21T16:54:14.323Z,4.47
2018-06-21T16:56:45.292Z,4.83
2018-06-21T16:59:15.132Z,4.80
2018-06-21T17:01:44.862Z,4.33
2018-06-21T17:04:14.863Z,5.67
2018-06-21T17:06:45.691Z,4.20
2018-06-21T17:09:15.509Z,4.70
2018-06-21T17:11:45.341Z,4.17
2018-06-21T17:14:15.131Z,4.03
2018-06-21T17:16:46.805Z,5.00
2018-06-21T17:19:16.778Z,4.70
2018-06-21T17:21:46.506Z,6.47
2018-06-21T17:24:16.279Z,4.50
2018-06-21T17:26:46.117Z,4.83
2018-06-21T17:29:15.929Z,5.23
2018-06-21T17:31:45.790Z,4.83
2018-06-21T17:34:15.642Z,5.90
2018-06-21T17:36:45.458Z,5.33
2018-06-21T17:39:15.391Z,5.07
2018-06-21T17:41:45.060Z,5.00
2018-06-21T17:44:14.798Z,4.70
2018-06-21T17:46:45.202Z,4.40
2018-06-21T17:49:15.049Z,6.10
2018-06-21T17:51:44.764Z,6.60
2018-06-21T17:54:14.595Z,4.20
2018-06-21T17:56:44.689Z,4.17
2018-06-21T17:59:14.539Z,3.80
2018-06-21T18:01:45.715Z,4.20
2018-06-21T18:04:15.438Z,4.50
2018-06-21T18:06:45.264Z,4.07
2018-06-21T18:09:14.927Z,3.87
2018-06-21T18:11:44.888Z,4.03
2018-06-21T18:14:14.805Z,3.47
2018-06-21T18:16:44.470Z,4.47
2018-06-21T18:19:14.181Z,3.33
2018-06-21T18:21:44.155Z,4.10
2018-06-21T18:24:13.898Z,3.97
2018-06-21T18:26:43.664Z,5.23
2018-06-21T18:29:13.536Z,4.27
2018-06-21T18:31:43.467Z,5.97
2018-06-21T18:34:16.129Z,4.77
2018-06-21T18:36:46.263Z,4.67
2018-06-21T18:39:16.076Z,4.60
2018-06-21T18:41:46.057Z,4.50
2018-06-21T18:44:15.843Z,5.00
2018-06-21T18:46:45.570Z,5.20
2018-06-21T18:49:15.725Z,5.07
2018-06-21T18:51:45.397Z,4.97
2018-06-21T18:54:15.104Z,5.30
2018-06-21T18:56:45.013Z,6.47
2018-06-21T18:59:14.736Z,5.00
2018-06-21T19:01:44.546Z,5.10
2018-06-21T19:04:14.251Z,4.50
2018-06-21T19:06:51.418Z,5.00
2018-06-21T19:09:26.462Z,4.70
2018-06-21T19:12:00.468Z,4.60
2018-06-21T19:14:30.802Z,5.10
2018-06-21T19:17:01.436Z,4.07
2018-06-21T19:19:31.141Z,4.47
2018-06-21T19:22:00.844Z,4.33
2018-06-21T19:24:32.526Z,4.33
2018-06-21T19:27:02.206Z,4.40
2018-06-21T19:29:31.940Z,3.60
2018-06-21T19:32:01.756Z,4.27
2018-06-21T19:34:31.547Z,3.73
2018-06-21T19:37:01.614Z,3.77
2018-06-21T19:39:31.279Z,3.60
2018-06-21T19:42:00.890Z,4.00
2018-06-21T19:44:31.375Z,3.13
2018-06-21T19:47:03.161Z,3.53
2018-06-21T19:49:33.649Z,3.83
2018-06-21T19:52:04.961Z,3.53
2018-06-21T19:54:34.869Z,4.03
2018-06-21T19:57:04.590Z,4.10
2018-06-21T19:59:34.330Z,4.83
2018-06-21T20:02:04.074Z,4.63
2018-06-21T20:04:33.766Z,4.17
2018-06-21T20:07:05.044Z,5.67
2018-06-21T20:09:34.671Z,4.57
2018-06-21T20:12:06.323Z,4.93
2018-06-21T20:14:36.012Z,4.57
2018-06-21T20:17:08.267Z,4.67
2018-06-21T20:19:43.139Z,5.33
2018-06-21T20:22:12.850Z,5.00
2018-06-21T20:24:42.643Z,5.73
2018-06-21T20:27:12.361Z,6.10
2018-06-21T20:29:41.987Z,5.73
2018-06-21T20:32:11.914Z,7.10
2018-06-21T20:34:41.497Z,6.00
2018-06-21T20:37:17.262Z,6.90
2018-06-21T20:39:47.917Z,6.33
2018-06-21T20:42:17.683Z,5.10
2018-06-21T20:44:47.447Z,6.00
2018-06-21T20:47:17.086Z,6.30
2018-06-21T20:49:46.819Z,5.23
2018-06-21T20:52:21.576Z,5.90
2018-06-21T20:54:51.339Z,8.07
2018-06-21T20:57:21.419Z,6.00
2018-06-21T20:59:51.060Z,6.40
2018-06-21T21:02:20.824Z,6.33
2018-06-21T21:05:08.895Z,7.10
2018-06-21T21:07:38.953Z,6.60
2018-06-21T21:10:09.938Z,6.73
2018-06-21T21:12:40.061Z,6.83
2018-06-21T21:15:10.737Z,5.70
2018-06-21T21:17:40.371Z,6.83
2018-06-21T21:20:11.848Z,7.40
2018-06-21T21:22:42.222Z,6.40
2018-06-21T21:25:11.998Z,5.93
2018-06-21T21:27:41.877Z,5.90
2018-06-21T21:30:11.477Z,5.53
2018-06-21T21:32:41.191Z,4.90
2018-06-21T21:35:10.828Z,4.00
2018-06-21T21:37:40.394Z,4.03
2018-06-21T21:40:09.671Z,3.50
2018-06-21T21:42:39.443Z,3.83
2018-06-21T21:45:09.034Z,3.20
2018-06-21T21:47:38.762Z,3.17
2018-06-21T21:50:08.425Z,2.93
2018-06-21T21:52:38.129Z,2.93
2018-06-21T21:55:08.102Z,2.73
2018-06-21T21:57:37.762Z,3.20
2018-06-21T22:00:17.027Z,3.43
2018-06-21T22:02:46.634Z,2.73
2018-06-21T22:05:16.145Z,3.53
2018-06-21T22:07:46.014Z,2.70
2018-06-21T22:10:15.623Z,2.57
2018-06-21T22:12:45.125Z,2.33
2018-06-21T22:15:14.883Z,2.17
2018-06-21T22:17:44.562Z,2.80
2018-06-21T22:20:14.270Z,2.40
2018-06-21T22:22:44.059Z,2.97
2018-06-21T22:25:14.218Z,2.80
2018-06-21T22:27:43.776Z,3.20
2018-06-21T22:30:13.270Z,2.60
2018-06-21T22:32:42.548Z,2.57
2018-06-21T22:35:12.045Z,2.77
2018-06-21T22:37:41.697Z,2.40
2018-06-21T22:40:11.451Z,2.60
2018-06-21T22:42:41.122Z,2.50
2018-06-21T22:45:10.753Z,2.60
2018-06-21T22:47:40.278Z,2.10
2018-06-21T22:50:09.964Z,2.07
2018-06-21T22:52:39.919Z,3.00
2018-06-21T22:55:09.532Z,2.10
2018-06-21T22:57:39.127Z,1.80
2018-06-21T23:00:08.655Z,2.17
2018-06-21T23:20:36.580Z,2.30
2018-06-21T23:23:07.262Z,1.77
2018-06-21T23:25:37.172Z,2.10
2018-06-21T23:28:07.083Z,2.23
2018-06-21T23:30:36.674Z,1.60
2018-06-21T23:33:06.293Z,1.80
2018-06-21T23:35:35.784Z,2.33
2018-06-21T23:38:05.444Z,2.07
2018-06-21T23:40:34.850Z,1.60
2018-06-21T23:43:07.365Z,2.03
2018-06-21T23:45:36.871Z,2.03
2018-06-21T23:48:06.472Z,2.30
2018-06-21T23:50:35.640Z,3.00
2018-06-21T23:53:05.263Z,2.03
2018-06-21T23:55:34.869Z,1.90
2018-06-21T23:58:04.493Z,2.10
